MDT,Max TemperatureF,Mean TemperatureF,Min TemperatureF,Max Dew PointF,MeanDew PointF,Min DewpointF,Max Humidity, Mean Humidity, Min Humidity, Max Sea Level PressureIn, Mean Sea Level PressureIn, Min Sea Level PressureIn, Max VisibilityMiles, Mean VisibilityMiles, Min VisibilityMiles, Max Wind SpeedMPH, Mean Wind SpeedMPH, Max Gust SpeedMPH,PrecipitationIn, CloudCover, Events, WindDirDegrees
2013-10-1,72,54,36,40,32,25,71,44,17,29.93,29.84,29.75,10,10,10,24,11,32,0.00,0,,194
2013-10-2,67,52,36,37,33,27,76,50,24,29.91,29.81,29.70,10,10,10,29,12,37,0.00,1,,153
2013-10-3,62,46,30,40,35,30,92,66,40,29.91,29.76,29.58,10,8,1,28,13,33,0.07,5,Rain-Snow,65
2013-10-4,30,25,19,29,25,15,100,89,77,30.32,30.03,29.74,10,2,0,35,22,43,0.25,7,Fog-Snow,336
2013-10-5,44,33,21,23,19,15,84,59,33,30.35,30.28,30.21,10,10,10,29,14,33,0.00,2,,291
2013-10-6,53,39,25,37,28,20,81,62,42,30.32,30.27,30.19,10,10,10,13,5,15,0.00,0,,107
2013-10-7,68,49,30,32,28,25,85,53,20,30.20,30.01,29.78,10,10,10,23,13,26,0.00,0,,209
2013-10-8,65,51,36,32,28,24,76,50,23,29.82,29.72,29.60,10,10,10,25,11,32,0.00,1,,225
2013-10-9,58,45,32,38,34,29,92,68,43,29.93,29.82,29.73,10,10,8,18,8,22,T,2,Rain,163
2013-10-10,53,45,36,39,38,35,100,80,59,29.79,29.65,29.47,10,6,1,24,14,29,0.64,6,Rain-Thunderstorm,223
2013-10-11,45,37,29,34,31,27,100,77,53,30.03,29.76,29.45,10,10,7,30,16,38,T,6,,274
2013-10-12,50,38,26,34,29,23,100,73,46,30.13,30.08,30.01,10,9,6,18,9,23,0.00,2,,177
2013-10-13,59,43,26,39,33,25,96,66,36,30.12,29.99,29.76,10,8,2,26,11,35,0.06,4,Rain,177
2013-10-14,40,33,25,37,30,21,100,91,81,30.25,30.01,29.76,10,6,0,31,16,37,0.17,7,Fog-Rain-Snow,330
2013-10-15,30,27,24,22,20,18,88,76,63,30.34,30.27,30.17,10,10,10,24,10,29,0.00,6,,341
2013-10-16,45,32,19,24,20,16,92,64,36,30.21,30.12,30.02,10,10,9,18,6,22,0.00,0,,221
2013-10-17,38,32,25,31,28,21,100,77,54,30.08,30.03,29.99,10,3,0,21,8,26,0.15,7,Fog-Snow,37
2013-10-18,34,27,20,25,21,16,100,81,61,30.25,30.15,30.07,10,9,2,24,11,29,T,4,Snow,316
2013-10-19,51,40,28,27,22,19,69,53,36,30.12,30.00,29.85,10,10,10,30,17,35,0.00,1,,250
2013-10-20,41,32,22,32,28,22,100,73,45,30.16,30.00,29.81,10,6,0,25,12,33,0.05,6,Fog-Rain-Snow,336
2013-10-21,49,36,22,27,24,19,92,66,39,30.19,30.14,30.07,10,10,10,26,13,33,0.00,5,,268
2013-10-22,58,43,28,30,27,24,78,53,28,30.22,30.12,30.02,10,10,10,21,9,24,0.00,0,,298
2013-10-23,58,43,27,29,26,22,85,55,25,30.20,30.11,30.03,10,10,10,14,5,17,0.00,0,,88
2013-10-24,57,41,24,32,28,22,92,63,33,30.26,30.16,30.08,10,10,7,13,7,15,0.00,0,,171
2013-10-25,61,43,25,31,24,20,85,53,20,30.25,30.16,30.06,10,10,10,24,9,31,0.00,0,,255
2013-10-26,58,40,22,30,24,19,88,58,28,30.38,30.25,30.11,10,10,10,12,6,16,0.00,0,,209
2013-10-27,58,45,32,26,21,15,75,47,19,30.06,29.90,29.77,10,10,10,26,12,36,0.00,0,,219
2013-10-28,44,34,24,29,25,21,100,79,57,29.96,29.87,29.74,10,8,1,37,21,41,T,5,,155
2013-10-29,47,33,19,31,24,17,100,67,34,29.99,29.90,29.83,10,6,1,28,10,33,0.07,5,Snow,160
2013-10-30,39,29,18,31,27,19,100,75,50,29.91,29.83,29.73,10,5,0,25,12,31,0.09,6,Fog-Snow,306
2013-10-31,41,31,21,25,22,17,75,63,50,29.91,29.86,29.82,10,10,7,36,20,44,T,3,Snow,266